sensor_id;sensor_type;location;lat;lon;timestamp;temperature;humidity
5392;DHT22;2719;53.624;9.786;2023-01-09T00:01:22;8.30;99.90
5392;DHT22;2719;53.624;9.786;2023-01-09T00:03:51;8.30;99.90
5392;DHT22;2719;53.624;9.786;2023-01-09T00:06:17;8.30;99.90
5392;DHT22;2719;53.624;9.786;2023-01-09T00:08:44;8.40;99.90
5392;DHT22;2719;53.624;9.786;2023-01-09T00:11:11;8.30;99.90
5392;DHT22;2719;53.624;9.786;2023-01-09T00:13:37;8.30;99.90
5392;DHT22;2719;53.624;9.786;2023-01-09T00:16:05;8.30;99.90
5392;DHT22;2719;53.624;9.786;2023-01-09T00:18:32;8.30;99.90
5392;DHT22;2719;53.624;9.786;2023-01-09T00:21:01;8.30;99.90
5392;DHT22;2719;53.624;9.786;2023-01-09T00:23:27;8.30;99.90
5392;DHT22;2719;53.624;9.786;2023-01-09T00:26:01;8.30;99.90
5392;DHT22;2719;53.624;9.786;2023-01-09T00:28:28;8.30;99.90
5392;DHT22;2719;53.624;9.786;2023-01-09T00:30:55;8.20;99.90
5392;DHT22;2719;53.624;9.786;2023-01-09T00:33:24;8.10;99.90
5392;DHT22;2719;53.624;9.786;2023-01-09T00:35:51;8.20;99.90
5392;DHT22;2719;53.624;9.786;2023-01-09T00:38:19;8.20;99.90
5392;DHT22;2719;53.624;9.786;2023-01-09T00:40:46;8.20;99.90
5392;DHT22;2719;53.624;9.786;2023-01-09T00:43:13;8.20;99.90
5392;DHT22;2719;53.624;9.786;2023-01-09T00:45:39;8.20;99.90
5392;DHT22;2719;53.624;9.786;2023-01-09T00:48:08;8.20;99.90
5392;DHT22;2719;53.624;9.786;2023-01-09T00:50:36;8.20;99.90
5392;DHT22;2719;53.624;9.786;2023-01-09T00:53:07;8.20;99.90
5392;DHT22;2719;53.624;9.786;2023-01-09T00:55:36;8.20;99.90
5392;DHT22;2719;53.624;9.786;2023-01-09T00:58:03;8.20;99.90
5392;DHT22;2719;53.624;9.786;2023-01-09T01:00:30;8.30;99.90
5392;DHT22;2719;53.624;9.786;2023-01-09T01:02:57;8.20;99.90
5392;DHT22;2719;53.624;9.786;2023-01-09T01:05:24;8.30;99.90
5392;DHT22;2719;53.624;9.786;2023-01-09T01:08:11;8.30;99.90
5392;DHT22;2719;53.624;9.786;2023-01-09T01:10:39;8.30;99.90
5392;DHT22;2719;53.624;9.786;2023-01-09T01:13:07;8.30;99.90
5392;DHT22;2719;53.624;9.786;2023-01-09T01:15:34;8.20;99.90
5392;DHT22;2719;53.624;9.786;2023-01-09T01:18:00;8.20;99.90
5392;DHT22;2719;53.624;9.786;2023-01-09T01:20:27;8.20;99.90
5392;DHT22;2719;53.624;9.786;2023-01-09T01:22:54;8.20;99.90
5392;DHT22;2719;53.624;9.786;2023-01-09T01:25:20;8.20;99.90
5392;DHT22;2719;53.624;9.786;2023-01-09T01:27:48;8.20;99.90
5392;DHT22;2719;53.624;9.786;2023-01-09T01:30:16;8.20;99.90
5392;DHT22;2719;53.624;9.786;2023-01-09T01:32:43;8.20;99.90
5392;DHT22;2719;53.624;9.786;2023-01-09T01:35:10;8.20;99.90
5392;DHT22;2719;53.624;9.786;2023-01-09T01:37:37;8.20;99.90
5392;DHT22;2719;53.624;9.786;2023-01-09T01:40:06;8.10;99.90
5392;DHT22;2719;53.624;9.786;2023-01-09T01:42:33;8.10;99.90
5392;DHT22;2719;53.624;9.786;2023-01-09T01:45:05;8.20;99.90
5392;DHT22;2719;53.624;9.786;2023-01-09T01:47:37;8.20;99.90
5392;DHT22;2719;53.624;9.786;2023-01-09T01:50:11;8.20;99.90
5392;DHT22;2719;53.624;9.786;2023-01-09T01:52:40;8.10;99.90
5392;DHT22;2719;53.624;9.786;2023-01-09T01:55:09;8.20;99.90
5392;DHT22;2719;53.624;9.786;2023-01-09T01:57:38;8.10;99.90
5392;DHT22;2719;53.624;9.786;2023-01-09T02:00:08;8.10;99.90
5392;DHT22;2719;53.624;9.786;2023-01-09T02:02:36;8.00;99.90
5392;DHT22;2719;53.624;9.786;2023-01-09T02:05:03;8.10;99.90
5392;DHT22;2719;53.624;9.786;2023-01-09T02:07:30;8.20;99.90
5392;DHT22;2719;53.624;9.786;2023-01-09T02:09:57;8.20;99.90
5392;DHT22;2719;53.624;9.786;2023-01-09T02:12:26;8.20;99.90
5392;DHT22;2719;53.624;9.786;2023-01-09T02:14:57;8.20;99.90
5392;DHT22;2719;53.624;9.786;2023-01-09T02:17:46;8.20;99.90
5392;DHT22;2719;53.624;9.786;2023-01-09T02:20:37;8.20;99.90
5392;DHT22;2719;53.624;9.786;2023-01-09T02:23:47;8.20;99.90
5392;DHT22;2719;53.624;9.786;2023-01-09T02:26:44;8.20;99.90
5392;DHT22;2719;53.624;9.786;2023-01-09T02:29:38;8.20;99.90
5392;DHT22;2719;53.624;9.786;2023-01-09T02:32:18;8.20;99.90
5392;DHT22;2719;53.624;9.786;2023-01-09T02:34:56;8.10;99.90
5392;DHT22;2719;53.624;9.786;2023-01-09T02:37:35;8.10;99.90
5392;DHT22;2719;53.624;9.786;2023-01-09T02:40:07;8.10;99.90
5392;DHT22;2719;53.624;9.786;2023-01-09T02:42:35;8.20;99.90
5392;DHT22;2719;53.624;9.786;2023-01-09T02:45:04;8.20;99.90
5392;DHT22;2719;53.624;9.786;2023-01-09T02:47:50;8.30;99.90
5392;DHT22;2719;53.624;9.786;2023-01-09T02:50:19;8.30;99.90
5392;DHT22;2719;53.624;9.786;2023-01-09T02:53:12;8.30;99.90
5392;DHT22;2719;53.624;9.786;2023-01-09T02:55:51;8.40;99.90
5392;DHT22;2719;53.624;9.786;2023-01-09T02:58:32;8.40;99.90
5392;DHT22;2719;53.624;9.786;2023-01-09T03:01:10;8.30;99.90
5392;DHT22;2719;53.624;9.786;2023-01-09T03:03:46;8.40;99.90
5392;DHT22;2719;53.624;9.786;2023-01-09T03:06:19;8.40;99.90
5392;DHT22;2719;53.624;9.786;2023-01-09T03:08:50;8.40;99.90
5392;DHT22;2719;53.624;9.786;2023-01-09T03:11:18;8.40;99.90
5392;DHT22;2719;53.624;9.786;2023-01-09T03:13:49;8.40;99.90
5392;DHT22;2719;53.624;9.786;2023-01-09T03:16:23;8.40;99.90
5392;DHT22;2719;53.624;9.786;2023-01-09T03:18:55;8.40;99.90
5392;DHT22;2719;53.624;9.786;2023-01-09T03:21:22;8.40;99.90
5392;DHT22;2719;53.624;9.786;2023-01-09T03:23:51;8.40;99.90
5392;DHT22;2719;53.624;9.786;2023-01-09T03:26:18;8.50;99.90
5392;DHT22;2719;53.624;9.786;2023-01-09T03:28:45;8.50;99.90
5392;DHT22;2719;53.624;9.786;2023-01-09T03:31:12;8.40;99.90
5392;DHT22;2719;53.624;9.786;2023-01-09T03:33:39;8.40;99.90
5392;DHT22;2719;53.624;9.786;2023-01-09T03:36:08;8.50;99.90
5392;DHT22;2719;53.624;9.786;2023-01-09T03:38:35;8.60;99.90
5392;DHT22;2719;53.624;9.786;2023-01-09T03:41:02;8.50;99.90
5392;DHT22;2719;53.624;9.786;2023-01-09T03:43:29;8.40;99.90
5392;DHT22;2719;53.624;9.786;2023-01-09T03:45:56;8.40;99.90
5392;DHT22;2719;53.624;9.786;2023-01-09T03:48:23;8.40;99.90
5392;DHT22;2719;53.624;9.786;2023-01-09T03:50:50;8.40;99.90
5392;DHT22;2719;53.624;9.786;2023-01-09T03:53:20;8.40;99.90
5392;DHT22;2719;53.624;9.786;2023-01-09T03:55:49;8.30;99.90
5392;DHT22;2719;53.624;9.786;2023-01-09T03:58:17;8.30;99.90
5392;DHT22;2719;53.624;9.786;2023-01-09T04:00:45;8.30;99.90
5392;DHT22;2719;53.624;9.786;2023-01-09T04:03:13;8.30;99.90
5392;DHT22;2719;53.624;9.786;2023-01-09T04:05:41;8.30;99.90
5392;DHT22;2719;53.624;9.786;2023-01-09T04:08:08;8.30;99.90
5392;DHT22;2719;53.624;9.786;2023-01-09T04:10:36;8.30;99.90
5392;DHT22;2719;53.624;9.786;2023-01-09T04:13:03;8.30;99.90
5392;DHT22;2719;53.624;9.786;2023-01-09T04:15:29;8.30;99.90
5392;DHT22;2719;53.624;9.786;2023-01-09T04:17:56;8.30;99.90
5392;DHT22;2719;53.624;9.786;2023-01-09T04:20:23;8.30;99.90
5392;DHT22;2719;53.624;9.786;2023-01-09T04:22:49;8.30;99.90
5392;DHT22;2719;53.624;9.786;2023-01-09T04:25:16;8.30;99.90
5392;DHT22;2719;53.624;9.786;2023-01-09T04:27:44;8.30;99.90
5392;DHT22;2719;53.624;9.786;2023-01-09T04:30:11;8.40;99.90
5392;DHT22;2719;53.624;9.786;2023-01-09T04:32:38;8.40;99.90
5392;DHT22;2719;53.624;9.786;2023-01-09T04:35:05;8.40;99.90
5392;DHT22;2719;53.624;9.786;2023-01-09T04:37:32;8.40;99.90
5392;DHT22;2719;53.624;9.786;2023-01-09T04:40:00;8.40;99.90
5392;DHT22;2719;53.624;9.786;2023-01-09T04:42:29;8.50;99.90
5392;DHT22;2719;53.624;9.786;2023-01-09T04:44:57;8.50;99.90
5392;DHT22;2719;53.624;9.786;2023-01-09T04:47:23;8.50;99.90
5392;DHT22;2719;53.624;9.786;2023-01-09T04:49:50;8.40;99.90
5392;DHT22;2719;53.624;9.786;2023-01-09T04:52:17;8.50;99.90
5392;DHT22;2719;53.624;9.786;2023-01-09T04:54:44;8.50;99.90
5392;DHT22;2719;53.624;9.786;2023-01-09T04:57:10;8.50;99.90
5392;DHT22;2719;53.624;9.786;2023-01-09T04:59:37;8.50;99.90
5392;DHT22;2719;53.624;9.786;2023-01-09T05:02:05;8.60;99.90
5392;DHT22;2719;53.624;9.786;2023-01-09T05:04:32;8.50;99.90
5392;DHT22;2719;53.624;9.786;2023-01-09T05:06:58;8.50;99.90
5392;DHT22;2719;53.624;9.786;2023-01-09T05:09:25;8.50;99.90
5392;DHT22;2719;53.624;9.786;2023-01-09T05:11:52;8.50;99.90
5392;DHT22;2719;53.624;9.786;2023-01-09T05:14:18;8.50;99.90
5392;DHT22;2719;53.624;9.786;2023-01-09T05:16:45;8.50;99.90
5392;DHT22;2719;53.624;9.786;2023-01-09T05:19:13;8.50;99.90
5392;DHT22;2719;53.624;9.786;2023-01-09T05:21:40;8.50;99.90
5392;DHT22;2719;53.624;9.786;2023-01-09T05:24:06;8.50;99.90
5392;DHT22;2719;53.624;9.786;2023-01-09T05:26:33;8.50;99.90
5392;DHT22;2719;53.624;9.786;2023-01-09T05:29:00;8.60;99.90
5392;DHT22;2719;53.624;9.786;2023-01-09T05:31:26;8.60;99.90
5392;DHT22;2719;53.624;9.786;2023-01-09T05:33:53;8.60;99.90
5392;DHT22;2719;53.624;9.786;2023-01-09T05:36:21;8.60;99.90
5392;DHT22;2719;53.624;9.786;2023-01-09T05:38:48;8.70;99.90
5392;DHT22;2719;53.624;9.786;2023-01-09T05:41:15;8.70;99.90
5392;DHT22;2719;53.624;9.786;2023-01-09T05:43:41;8.70;99.90
5392;DHT22;2719;53.624;9.786;2023-01-09T05:46:08;8.80;99.90
5392;DHT22;2719;53.624;9.786;2023-01-09T05:48:35;8.80;99.90
5392;DHT22;2719;53.624;9.786;2023-01-09T05:51:15;8.80;99.90
5392;DHT22;2719;53.624;9.786;2023-01-09T05:53:43;8.90;99.90
5392;DHT22;2719;53.624;9.786;2023-01-09T05:56:09;8.80;99.90
5392;DHT22;2719;53.624;9.786;2023-01-09T05:58:36;8.90;99.90
5392;DHT22;2719;53.624;9.786;2023-01-09T06:01:02;8.90;99.90
5392;DHT22;2719;53.624;9.786;2023-01-09T06:03:29;9.00;99.90
5392;DHT22;2719;53.624;9.786;2023-01-09T06:05:56;9.00;99.90
5392;DHT22;2719;53.624;9.786;2023-01-09T06:08:22;9.00;99.90
5392;DHT22;2719;53.624;9.786;2023-01-09T06:10:50;9.00;99.90
5392;DHT22;2719;53.624;9.786;2023-01-09T06:13:17;9.00;99.90
5392;DHT22;2719;53.624;9.786;2023-01-09T06:15:46;9.00;99.90
5392;DHT22;2719;53.624;9.786;2023-01-09T06:18:12;9.10;99.90
5392;DHT22;2719;53.624;9.786;2023-01-09T06:20:39;9.10;99.90
5392;DHT22;2719;53.624;9.786;2023-01-09T06:23:06;9.10;99.90
5392;DHT22;2719;53.624;9.786;2023-01-09T06:25:32;9.10;99.90
5392;DHT22;2719;53.624;9.786;2023-01-09T06:28:00;9.10;99.90
5392;DHT22;2719;53.624;9.786;2023-01-09T06:30:27;9.10;99.90
5392;DHT22;2719;53.624;9.786;2023-01-09T06:32:54;9.10;99.90
5392;DHT22;2719;53.624;9.786;2023-01-09T06:35:20;9.10;99.90
5392;DHT22;2719;53.624;9.786;2023-01-09T06:37:47;9.10;99.90
5392;DHT22;2719;53.624;9.786;2023-01-09T06:40:14;9.00;99.90
5392;DHT22;2719;53.624;9.786;2023-01-09T06:42:44;9.10;99.90
5392;DHT22;2719;53.624;9.786;2023-01-09T06:45:13;9.10;99.90
5392;DHT22;2719;53.624;9.786;2023-01-09T06:47:40;9.00;99.90
5392;DHT22;2719;53.624;9.786;2023-01-09T06:50:08;9.00;99.90
5392;DHT22;2719;53.624;9.786;2023-01-09T06:52:35;9.00;99.90
5392;DHT22;2719;53.624;9.786;2023-01-09T06:55:02;9.00;99.90
5392;DHT22;2719;53.624;9.786;2023-01-09T06:57:29;9.00;99.90
5392;DHT22;2719;53.624;9.786;2023-01-09T06:59:55;8.90;99.90
5392;DHT22;2719;53.624;9.786;2023-01-09T07:02:23;8.90;99.90
5392;DHT22;2719;53.624;9.786;2023-01-09T07:04:50;8.80;99.90
5392;DHT22;2719;53.624;9.786;2023-01-09T07:07:17;8.80;99.90
5392;DHT22;2719;53.624;9.786;2023-01-09T07:09:44;8.70;99.90
5392;DHT22;2719;53.624;9.786;2023-01-09T07:12:11;8.80;99.90
5392;DHT22;2719;53.624;9.786;2023-01-09T07:14:39;8.70;99.90
5392;DHT22;2719;53.624;9.786;2023-01-09T07:17:06;8.50;99.90
5392;DHT22;2719;53.624;9.786;2023-01-09T07:19:34;8.50;99.90
5392;DHT22;2719;53.624;9.786;2023-01-09T07:22:01;8.50;99.90
5392;DHT22;2719;53.624;9.786;2023-01-09T07:24:27;8.40;99.90
5392;DHT22;2719;53.624;9.786;2023-01-09T07:26:54;8.40;99.90
5392;DHT22;2719;53.624;9.786;2023-01-09T07:29:21;8.30;99.90
5392;DHT22;2719;53.624;9.786;2023-01-09T07:31:47;8.30;99.90
5392;DHT22;2719;53.624;9.786;2023-01-09T07:34:14;8.20;99.90
5392;DHT22;2719;53.624;9.786;2023-01-09T07:36:42;8.10;99.90
5392;DHT22;2719;53.624;9.786;2023-01-09T07:39:11;8.10;99.90
5392;DHT22;2719;53.624;9.786;2023-01-09T07:41:37;8.10;99.90
5392;DHT22;2719;53.624;9.786;2023-01-09T07:44:04;8.00;99.90
5392;DHT22;2719;53.624;9.786;2023-01-09T07:46:31;8.00;99.90
5392;DHT22;2719;53.624;9.786;2023-01-09T07:48:58;8.00;99.90
5392;DHT22;2719;53.624;9.786;2023-01-09T07:51:24;7.90;99.90
5392;DHT22;2719;53.624;9.786;2023-01-09T07:53:54;7.90;99.90
5392;DHT22;2719;53.624;9.786;2023-01-09T07:56:20;7.90;99.90
5392;DHT22;2719;53.624;9.786;2023-01-09T07:58:47;7.90;99.90
5392;DHT22;2719;53.624;9.786;2023-01-09T08:01:14;7.80;99.90
5392;DHT22;2719;53.624;9.786;2023-01-09T08:03:40;7.80;99.90
5392;DHT22;2719;53.624;9.786;2023-01-09T08:06:07;7.90;99.90
5392;DHT22;2719;53.624;9.786;2023-01-09T08:08:34;7.90;99.90
5392;DHT22;2719;53.624;9.786;2023-01-09T08:11:02;7.70;99.90
5392;DHT22;2719;53.624;9.786;2023-01-09T08:13:29;7.60;99.90
5392;DHT22;2719;53.624;9.786;2023-01-09T08:15:55;7.60;99.90
5392;DHT22;2719;53.624;9.786;2023-01-09T08:18:22;7.50;99.90
5392;DHT22;2719;53.624;9.786;2023-01-09T08:20:49;7.50;99.90
5392;DHT22;2719;53.624;9.786;2023-01-09T08:23:15;7.60;99.90
5392;DHT22;2719;53.624;9.786;2023-01-09T08:25:42;7.60;99.90
5392;DHT22;2719;53.624;9.786;2023-01-09T08:28:11;7.60;99.90
5392;DHT22;2719;53.624;9.786;2023-01-09T08:30:38;7.50;99.90
5392;DHT22;2719;53.624;9.786;2023-01-09T08:33:04;7.50;99.90
5392;DHT22;2719;53.624;9.786;2023-01-09T08:35:31;7.40;99.90
5392;DHT22;2719;53.624;9.786;2023-01-09T08:37:58;7.30;99.90
5392;DHT22;2719;53.624;9.786;2023-01-09T08:40:24;7.40;99.90
5392;DHT22;2719;53.624;9.786;2023-01-09T08:42:51;7.40;99.90
5392;DHT22;2719;53.624;9.786;2023-01-09T08:45:36;7.40;99.90
5392;DHT22;2719;53.624;9.786;2023-01-09T08:48:20;7.30;99.90
5392;DHT22;2719;53.624;9.786;2023-01-09T08:50:47;7.40;99.90
5392;DHT22;2719;53.624;9.786;2023-01-09T08:53:14;7.40;99.90
5392;DHT22;2719;53.624;9.786;2023-01-09T08:55:41;7.40;99.90
5392;DHT22;2719;53.624;9.786;2023-01-09T08:58:07;7.50;99.90
5392;DHT22;2719;53.624;9.786;2023-01-09T09:00:34;7.40;99.90
5392;DHT22;2719;53.624;9.786;2023-01-09T09:03:02;7.40;99.90
5392;DHT22;2719;53.624;9.786;2023-01-09T09:05:30;7.40;99.90
5392;DHT22;2719;53.624;9.786;2023-01-09T09:07:57;7.50;99.90
5392;DHT22;2719;53.624;9.786;2023-01-09T09:10:26;7.40;99.90
5392;DHT22;2719;53.624;9.786;2023-01-09T09:12:54;7.40;99.90
5392;DHT22;2719;53.624;9.786;2023-01-09T09:15:23;7.40;99.90
5392;DHT22;2719;53.624;9.786;2023-01-09T09:17:51;7.40;99.90
5392;DHT22;2719;53.624;9.786;2023-01-09T09:20:20;7.40;99.90
5392;DHT22;2719;53.624;9.786;2023-01-09T09:22:48;7.50;99.90
5392;DHT22;2719;53.624;9.786;2023-01-09T09:25:16;7.40;99.90
5392;DHT22;2719;53.624;9.786;2023-01-09T09:27:43;7.40;99.90
5392;DHT22;2719;53.624;9.786;2023-01-09T09:30:14;7.40;99.90
5392;DHT22;2719;53.624;9.786;2023-01-09T09:32:41;7.40;99.90
5392;DHT22;2719;53.624;9.786;2023-01-09T09:35:08;7.40;99.90
5392;DHT22;2719;53.624;9.786;2023-01-09T09:37:37;7.40;99.90
5392;DHT22;2719;53.624;9.786;2023-01-09T09:40:05;7.50;99.90
5392;DHT22;2719;53.624;9.786;2023-01-09T09:42:48;7.60;99.90
5392;DHT22;2719;53.624;9.786;2023-01-09T09:45:42;7.50;99.90
5392;DHT22;2719;53.624;9.786;2023-01-09T09:48:21;7.30;99.90
5392;DHT22;2719;53.624;9.786;2023-01-09T09:51:09;7.20;99.90
5392;DHT22;2719;53.624;9.786;2023-01-09T09:53:47;7.30;99.90
5392;DHT22;2719;53.624;9.786;2023-01-09T09:56:17;7.30;99.90
5392;DHT22;2719;53.624;9.786;2023-01-09T09:58:50;7.20;99.90
5392;DHT22;2719;53.624;9.786;2023-01-09T10:01:21;7.30;99.90
5392;DHT22;2719;53.624;9.786;2023-01-09T10:03:51;7.30;99.90
5392;DHT22;2719;53.624;9.786;2023-01-09T10:06:24;7.30;99.90
5392;DHT22;2719;53.624;9.786;2023-01-09T10:08:59;7.30;99.90
5392;DHT22;2719;53.624;9.786;2023-01-09T10:11:33;7.20;99.90
5392;DHT22;2719;53.624;9.786;2023-01-09T10:14:02;7.20;99.90
5392;DHT22;2719;53.624;9.786;2023-01-09T10:16:44;7.20;99.90
5392;DHT22;2719;53.624;9.786;2023-01-09T10:19:22;7.20;99.90
5392;DHT22;2719;53.624;9.786;2023-01-09T10:21:57;7.00;99.90
5392;DHT22;2719;53.624;9.786;2023-01-09T10:24:35;7.00;99.90
5392;DHT22;2719;53.624;9.786;2023-01-09T10:27:16;7.10;99.90
5392;DHT22;2719;53.624;9.786;2023-01-09T10:29:58;7.20;99.90
5392;DHT22;2719;53.624;9.786;2023-01-09T10:32:46;7.10;99.90
5392;DHT22;2719;53.624;9.786;2023-01-09T10:38:17;7.10;99.90
5392;DHT22;2719;53.624;9.786;2023-01-09T10:40:50;7.00;99.90
5392;DHT22;2719;53.624;9.786;2023-01-09T10:43:26;7.00;99.90
5392;DHT22;2719;53.624;9.786;2023-01-09T10:45:57;7.10;99.90
5392;DHT22;2719;53.624;9.786;2023-01-09T10:48:28;7.10;99.90
5392;DHT22;2719;53.624;9.786;2023-01-09T10:50:57;7.10;99.90
5392;DHT22;2719;53.624;9.786;2023-01-09T10:53:27;7.20;99.90
5392;DHT22;2719;53.624;9.786;2023-01-09T10:56:00;7.10;99.90
5392;DHT22;2719;53.624;9.786;2023-01-09T10:58:29;7.20;99.90
5392;DHT22;2719;53.624;9.786;2023-01-09T11:00:55;7.20;99.90
5392;DHT22;2719;53.624;9.786;2023-01-09T11:03:27;7.20;99.90
5392;DHT22;2719;53.624;9.786;2023-01-09T11:05:56;7.20;99.90
5392;DHT22;2719;53.624;9.786;2023-01-09T11:08:26;7.10;99.90
5392;DHT22;2719;53.624;9.786;2023-01-09T11:10:57;7.10;99.90
5392;DHT22;2719;53.624;9.786;2023-01-09T11:13:25;7.20;99.90
5392;DHT22;2719;53.624;9.786;2023-01-09T11:16:02;7.20;99.90
5392;DHT22;2719;53.624;9.786;2023-01-09T11:18:30;7.10;99.90
5392;DHT22;2719;53.624;9.786;2023-01-09T11:21:12;7.20;99.90
5392;DHT22;2719;53.624;9.786;2023-01-09T11:23:39;7.30;99.90
5392;DHT22;2719;53.624;9.786;2023-01-09T11:26:21;7.30;99.90
5392;DHT22;2719;53.624;9.786;2023-01-09T11:29:04;7.50;99.90
5392;DHT22;2719;53.624;9.786;2023-01-09T11:31:32;7.70;99.90
5392;DHT22;2719;53.624;9.786;2023-01-09T11:33:58;7.80;99.90
5392;DHT22;2719;53.624;9.786;2023-01-09T11:36:26;7.80;99.90
5392;DHT22;2719;53.624;9.786;2023-01-09T11:38:54;7.80;99.90
5392;DHT22;2719;53.624;9.786;2023-01-09T11:41:24;7.90;99.90
5392;DHT22;2719;53.624;9.786;2023-01-09T11:43:53;7.90;99.90
5392;DHT22;2719;53.624;9.786;2023-01-09T11:46:32;7.90;99.90
5392;DHT22;2719;53.624;9.786;2023-01-09T11:49:00;7.90;99.90
5392;DHT22;2719;53.624;9.786;2023-01-09T11:51:29;8.00;99.90
5392;DHT22;2719;53.624;9.786;2023-01-09T11:54:02;8.00;99.90
5392;DHT22;2719;53.624;9.786;2023-01-09T11:56:33;8.00;99.90
5392;DHT22;2719;53.624;9.786;2023-01-09T11:59:01;8.00;99.90
5392;DHT22;2719;53.624;9.786;2023-01-09T12:01:57;8.00;99.90
5392;DHT22;2719;53.624;9.786;2023-01-09T12:04:29;8.10;99.90
5392;DHT22;2719;53.624;9.786;2023-01-09T12:07:24;8.00;99.90
5392;DHT22;2719;53.624;9.786;2023-01-09T12:09:59;8.00;99.90
5392;DHT22;2719;53.624;9.786;2023-01-09T12:12:35;8.00;99.90
5392;DHT22;2719;53.624;9.786;2023-01-09T12:15:19;8.00;99.90
5392;DHT22;2719;53.624;9.786;2023-01-09T12:18:09;8.00;99.90
5392;DHT22;2719;53.624;9.786;2023-01-09T12:20:53;8.00;99.90
5392;DHT22;2719;53.624;9.786;2023-01-09T12:23:31;8.00;99.90
5392;DHT22;2719;53.624;9.786;2023-01-09T12:26:12;8.10;99.90
5392;DHT22;2719;53.624;9.786;2023-01-09T12:31:45;8.10;99.90
5392;DHT22;2719;53.624;9.786;2023-01-09T12:34:26;8.20;99.90
5392;DHT22;2719;53.624;9.786;2023-01-09T12:37:01;8.20;99.90
5392;DHT22;2719;53.624;9.786;2023-01-09T12:39:35;8.20;99.90
5392;DHT22;2719;53.624;9.786;2023-01-09T12:42:13;8.20;99.90
5392;DHT22;2719;53.624;9.786;2023-01-09T12:44:54;8.20;99.90
5392;DHT22;2719;53.624;9.786;2023-01-09T12:47:42;8.10;99.90
5392;DHT22;2719;53.624;9.786;2023-01-09T12:50:27;8.10;99.90
5392;DHT22;2719;53.624;9.786;2023-01-09T12:53:04;8.20;99.90
5392;DHT22;2719;53.624;9.786;2023-01-09T12:55:33;8.20;99.90
5392;DHT22;2719;53.624;9.786;2023-01-09T12:58:07;8.20;99.90
5392;DHT22;2719;53.624;9.786;2023-01-09T13:00:40;8.20;99.90
5392;DHT22;2719;53.624;9.786;2023-01-09T13:03:14;8.30;99.90
5392;DHT22;2719;53.624;9.786;2023-01-09T13:05:46;8.30;99.90
5392;DHT22;2719;53.624;9.786;2023-01-09T13:08:18;8.30;99.90
5392;DHT22;2719;53.624;9.786;2023-01-09T13:10:48;8.20;99.90
5392;DHT22;2719;53.624;9.786;2023-01-09T13:13:21;8.30;99.90
5392;DHT22;2719;53.624;9.786;2023-01-09T13:15:52;8.30;99.90
5392;DHT22;2719;53.624;9.786;2023-01-09T13:18:23;8.40;99.90
5392;DHT22;2719;53.624;9.786;2023-01-09T13:20:54;8.40;99.90
5392;DHT22;2719;53.624;9.786;2023-01-09T13:23:27;8.40;99.90
5392;DHT22;2719;53.624;9.786;2023-01-09T13:25:57;8.50;99.90
5392;DHT22;2719;53.624;9.786;2023-01-09T13:28:27;8.70;99.90
5392;DHT22;2719;53.624;9.786;2023-01-09T13:33:59;8.70;99.90
5392;DHT22;2719;53.624;9.786;2023-01-09T13:36:29;8.70;99.90
5392;DHT22;2719;53.624;9.786;2023-01-09T13:38:58;8.70;99.90
5392;DHT22;2719;53.624;9.786;2023-01-09T13:41:26;8.70;99.90
5392;DHT22;2719;53.624;9.786;2023-01-09T13:44:22;8.70;99.90
5392;DHT22;2719;53.624;9.786;2023-01-09T13:46:53;8.60;99.90
5392;DHT22;2719;53.624;9.786;2023-01-09T13:49:58;8.60;99.90
5392;DHT22;2719;53.624;9.786;2023-01-09T13:52:31;8.60;99.90
5392;DHT22;2719;53.624;9.786;2023-01-09T13:58:21;8.50;99.90
5392;DHT22;2719;53.624;9.786;2023-01-09T14:00:59;8.50;99.90
5392;DHT22;2719;53.624;9.786;2023-01-09T14:03:31;8.50;99.90
5392;DHT22;2719;53.624;9.786;2023-01-09T14:06:14;8.50;99.90
5392;DHT22;2719;53.624;9.786;2023-01-09T14:08:42;8.40;99.90
5392;DHT22;2719;53.624;9.786;2023-01-09T14:11:18;8.50;99.90
5392;DHT22;2719;53.624;9.786;2023-01-09T14:13:51;8.60;99.90
5392;DHT22;2719;53.624;9.786;2023-01-09T14:16:22;8.60;99.90
5392;DHT22;2719;53.624;9.786;2023-01-09T14:18:52;8.60;99.90
5392;DHT22;2719;53.624;9.786;2023-01-09T14:21:22;8.50;99.90
5392;DHT22;2719;53.624;9.786;2023-01-09T14:23:55;8.50;99.90
5392;DHT22;2719;53.624;9.786;2023-01-09T14:26:41;8.50;99.90
5392;DHT22;2719;53.624;9.786;2023-01-09T14:29:42;8.50;99.90
5392;DHT22;2719;53.624;9.786;2023-01-09T14:32:35;8.50;99.90
5392;DHT22;2719;53.624;9.786;2023-01-09T14:35:14;8.50;99.90
5392;DHT22;2719;53.624;9.786;2023-01-09T14:37:41;8.50;99.90
5392;DHT22;2719;53.624;9.786;2023-01-09T14:40:18;8.50;99.90
5392;DHT22;2719;53.624;9.786;2023-01-09T14:42:49;8.50;99.90
5392;DHT22;2719;53.624;9.786;2023-01-09T14:45:20;8.50;99.90
5392;DHT22;2719;53.624;9.786;2023-01-09T14:47:50;8.40;99.90
5392;DHT22;2719;53.624;9.786;2023-01-09T14:50:27;8.30;99.90
5392;DHT22;2719;53.624;9.786;2023-01-09T14:53:01;8.30;99.90
5392;DHT22;2719;53.624;9.786;2023-01-09T14:55:34;8.20;99.90
5392;DHT22;2719;53.624;9.786;2023-01-09T14:58:18;8.20;99.90
5392;DHT22;2719;53.624;9.786;2023-01-09T15:00:48;8.20;99.90
5392;DHT22;2719;53.624;9.786;2023-01-09T15:03:16;8.20;99.90
5392;DHT22;2719;53.624;9.786;2023-01-09T15:05:45;8.30;99.90
5392;DHT22;2719;53.624;9.786;2023-01-09T15:08:15;8.30;99.90
5392;DHT22;2719;53.624;9.786;2023-01-09T15:10:44;8.40;99.90
5392;DHT22;2719;53.624;9.786;2023-01-09T15:13:15;8.40;99.90
5392;DHT22;2719;53.624;9.786;2023-01-09T15:15:44;8.40;99.90
5392;DHT22;2719;53.624;9.786;2023-01-09T15:18:19;8.40;99.90
5392;DHT22;2719;53.624;9.786;2023-01-09T15:20:51;8.40;99.90
5392;DHT22;2719;53.624;9.786;2023-01-09T15:23:21;8.40;99.90
5392;DHT22;2719;53.624;9.786;2023-01-09T15:25:48;8.30;99.90
5392;DHT22;2719;53.624;9.786;2023-01-09T15:28:26;8.40;99.90
5392;DHT22;2719;53.624;9.786;2023-01-09T15:30:58;8.40;99.90
5392;DHT22;2719;53.624;9.786;2023-01-09T15:33:25;8.40;99.90
5392;DHT22;2719;53.624;9.786;2023-01-09T15:35:53;8.40;99.90
5392;DHT22;2719;53.624;9.786;2023-01-09T15:38:25;8.40;99.90
5392;DHT22;2719;53.624;9.786;2023-01-09T15:40:54;8.40;99.90
5392;DHT22;2719;53.624;9.786;2023-01-09T15:43:21;8.50;99.90
5392;DHT22;2719;53.624;9.786;2023-01-09T15:45:47;8.50;99.90
5392;DHT22;2719;53.624;9.786;2023-01-09T15:48:21;8.50;99.90
5392;DHT22;2719;53.624;9.786;2023-01-09T15:50:49;8.50;99.90
5392;DHT22;2719;53.624;9.786;2023-01-09T15:53:19;8.50;99.90
5392;DHT22;2719;53.624;9.786;2023-01-09T15:56:05;8.50;99.90
5392;DHT22;2719;53.624;9.786;2023-01-09T15:58:34;8.60;99.90
5392;DHT22;2719;53.624;9.786;2023-01-09T16:01:04;8.70;99.90
5392;DHT22;2719;53.624;9.786;2023-01-09T16:03:35;8.60;99.90
5392;DHT22;2719;53.624;9.786;2023-01-09T16:06:06;8.70;99.90
5392;DHT22;2719;53.624;9.786;2023-01-09T16:08:37;8.70;99.90
5392;DHT22;2719;53.624;9.786;2023-01-09T16:11:06;8.70;99.90
5392;DHT22;2719;53.624;9.786;2023-01-09T16:13:38;8.70;99.90
5392;DHT22;2719;53.624;9.786;2023-01-09T16:16:09;8.70;99.90
5392;DHT22;2719;53.624;9.786;2023-01-09T16:18:37;8.70;99.90
5392;DHT22;2719;53.624;9.786;2023-01-09T16:21:31;8.80;99.90
5392;DHT22;2719;53.624;9.786;2023-01-09T16:24:02;8.80;99.90
5392;DHT22;2719;53.624;9.786;2023-01-09T16:26:31;8.80;99.90
5392;DHT22;2719;53.624;9.786;2023-01-09T16:29:26;8.80;99.90
5392;DHT22;2719;53.624;9.786;2023-01-09T16:31:59;8.80;99.90
5392;DHT22;2719;53.624;9.786;2023-01-09T16:34:26;8.80;99.90
5392;DHT22;2719;53.624;9.786;2023-01-09T16:36:53;8.80;99.90
5392;DHT22;2719;53.624;9.786;2023-01-09T16:39:21;8.80;99.90
5392;DHT22;2719;53.624;9.786;2023-01-09T16:41:50;8.80;99.90
5392;DHT22;2719;53.624;9.786;2023-01-09T16:44:34;8.80;99.90
5392;DHT22;2719;53.624;9.786;2023-01-09T16:47:01;8.80;99.90
5392;DHT22;2719;53.624;9.786;2023-01-09T16:49:28;8.80;99.90
5392;DHT22;2719;53.624;9.786;2023-01-09T16:51:55;8.80;99.90
5392;DHT22;2719;53.624;9.786;2023-01-09T16:54:28;8.80;99.90